Time;durP1;ratioP1;P1;durP2;ratioP2;P2;SDS_P1;SDS_P2;PMS_P1;PMS_P2;Temp;Humidity;BMP_temperature;BMP_pressure;BME280_temperature;BME280_humidity;BME280_pressure;Samples;Min_cycle;Max_cycle;Signal;HPM_P1;HPM_P2
2022/09/11 00:02:24;;;;;;;3.33;1.20;;;15.70;88.80;;;;;;5071305;28;20436;-64
2022/09/11 00:04:56;;;;;;;5.40;1.30;;;15.70;88.70;;;;;;5071786;28;20485;-64
2022/09/11 00:07:26;;;;;;;3.10;1.03;;;15.70;88.40;;;;;;5071506;28;20447;-64
2022/09/11 00:09:54;;;;;;;2.67;1.10;;;15.70;88.30;;;;;;5071863;28;20448;-64
2022/09/11 00:12:21;;;;;;;3.00;1.20;;;15.70;88.10;;;;;;5071680;28;20557;-63
2022/09/11 00:14:50;;;;;;;2.63;0.80;;;15.70;88.40;;;;;;5071823;28;20479;-63
2022/09/11 00:17:18;;;;;;;2.23;1.10;;;15.70;88.50;;;;;;5071206;28;20439;-64
2022/09/11 00:19:45;;;;;;;3.23;0.90;;;15.70;88.70;;;;;;5071870;28;20440;-64
2022/09/11 00:22:12;;;;;;;2.40;0.83;;;15.70;88.80;;;;;;5071412;28;20923;-63
2022/09/11 00:24:40;;;;;;;4.70;0.83;;;15.70;88.50;;;;;;5071969;28;20543;-63
2022/09/11 00:27:07;;;;;;;4.63;1.00;;;15.70;89.00;;;;;;5074401;28;20467;-63
2022/09/11 00:29:34;;;;;;;4.20;1.30;;;15.80;88.80;;;;;;5075620;28;20436;-63
2022/09/11 00:32:03;;;;;;;2.97;1.00;;;15.70;88.60;;;;;;5075391;28;20938;-63
2022/09/11 00:34:30;;;;;;;1.97;0.80;;;15.70;88.00;;;;;;5075748;28;20879;-63
2022/09/11 00:36:58;;;;;;;2.17;0.97;;;15.70;88.30;;;;;;5074995;28;20475;-64
2022/09/11 00:39:25;;;;;;;3.83;1.30;;;15.70;87.90;;;;;;5075657;28;20470;-63
2022/09/11 00:41:52;;;;;;;2.50;1.00;;;15.70;88.30;;;;;;5074600;28;20439;-63
2022/09/11 00:44:59;;;;;;;1.90;0.93;;;15.70;88.60;;;;;;5075431;28;20447;-64
2022/09/11 00:47:29;;;;;;;2.80;0.90;;;15.60;88.40;;;;;;5073634;28;20446;-64
2022/09/11 00:50:02;;;;;;;2.30;0.80;;;15.60;88.10;;;;;;5075157;28;20497;-63
2022/09/11 00:52:31;;;;;;;1.90;0.80;;;15.60;88.30;;;;;;5074670;28;20699;-64
2022/09/11 00:55:04;;;;;;;2.30;0.80;;;15.60;88.20;;;;;;5075128;28;20477;-63
2022/09/11 00:57:38;;;;;;;4.23;0.90;;;15.60;87.90;;;;;;5074800;28;20440;-63
2022/09/11 01:00:07;;;;;;;1.87;0.80;;;15.60;88.40;;;;;;5075552;28;20440;-63
2022/09/11 01:02:38;;;;;;;1.90;0.83;;;15.60;87.80;;;;;;5075161;28;20847;-64
2022/09/11 01:05:07;;;;;;;4.00;0.90;;;15.60;87.80;;;;;;5075296;28;20439;-64
2022/09/11 01:07:36;;;;;;;2.10;0.90;;;15.50;88.10;;;;;;5074642;28;20440;-63
2022/09/11 01:10:04;;;;;;;2.17;0.80;;;15.50;87.80;;;;;;5074673;28;20436;-64
2022/09/11 01:12:38;;;;;;;1.90;0.93;;;15.50;88.30;;;;;;5074861;28;20844;-63
2022/09/11 01:15:10;;;;;;;2.50;1.13;;;15.50;89.50;;;;;;5074750;28;20478;-64
2022/09/11 01:17:49;;;;;;;3.23;0.90;;;15.50;89.10;;;;;;5075005;28;20450;-63
2022/09/11 01:20:26;;;;;;;6.50;1.10;;;15.50;89.00;;;;;;5074823;28;20436;-63
2022/09/11 01:23:29;;;;;;;3.50;1.40;;;15.60;89.00;;;;;;5074567;28;20576;-64
2022/09/11 01:26:17;;;;;;;2.20;1.10;;;15.60;88.70;;;;;;5074029;28;20886;-63
2022/09/11 01:28:52;;;;;;;3.27;1.53;;;15.60;89.00;;;;;;5074683;28;20455;-63
2022/09/11 01:31:25;;;;;;;6.07;0.90;;;15.60;89.10;;;;;;5074083;28;20439;-63
2022/09/11 01:33:59;;;;;;;2.10;0.80;;;15.60;89.50;;;;;;5074594;28;20436;-63
2022/09/11 01:36:30;;;;;;;2.40;0.80;;;15.60;89.50;;;;;;5073461;28;20486;-63
2022/09/11 01:39:01;;;;;;;2.13;0.93;;;15.60;89.40;;;;;;5073884;28;20541;-63
2022/09/11 01:41:33;;;;;;;1.73;1.00;;;15.60;88.80;;;;;;5074082;28;20893;-63
2022/09/11 01:44:06;;;;;;;1.93;1.00;;;15.60;88.60;;;;;;5074337;28;21075;-63
2022/09/11 01:46:39;;;;;;;2.13;1.00;;;15.60;88.60;;;;;;5074094;28;20437;-63
2022/09/11 01:49:11;;;;;;;3.87;1.57;;;15.70;89.00;;;;;;5073878;28;20440;-64
2022/09/11 01:51:40;;;;;;;1.93;0.87;;;15.70;88.60;;;;;;5073106;28;20440;-64
2022/09/11 01:54:10;;;;;;;2.93;0.83;;;15.70;88.10;;;;;;5073811;28;20436;-64
2022/09/11 01:56:43;;;;;;;2.47;0.90;;;15.70;87.90;;;;;;5074203;28;20483;-64
2022/09/11 01:59:15;;;;;;;3.40;1.10;;;15.80;87.60;;;;;;5072623;28;20811;-64
2022/09/11 02:01:49;;;;;;;2.53;1.27;;;15.80;87.10;;;;;;5073537;28;20436;-64
2022/09/11 02:04:21;;;;;;;4.70;1.40;;;15.70;87.00;;;;;;5073435;28;20486;-63
2022/09/11 02:06:53;;;;;;;2.97;0.93;;;15.70;87.20;;;;;;5073675;28;20440;-63
2022/09/11 02:09:25;;;;;;;2.77;0.87;;;15.70;87.10;;;;;;5073377;28;20926;-63
2022/09/11 02:11:55;;;;;;;2.87;1.60;;;15.70;87.40;;;;;;5074104;28;20795;-63
2022/09/11 02:14:29;;;;;;;3.17;0.83;;;15.70;87.90;;;;;;5073433;28;21000;-63
2022/09/11 02:17:05;;;;;;;2.37;1.23;;;15.70;87.40;;;;;;5073793;28;20443;-63
2022/09/11 02:19:33;;;;;;;3.70;1.00;;;15.70;87.10;;;;;;5073233;28;20995;-63
2022/09/11 02:22:00;;;;;;;2.00;0.90;;;15.70;87.00;;;;;;5073614;28;20444;-63
2022/09/11 02:24:28;;;;;;;2.60;1.00;;;15.70;87.30;;;;;;5073191;28;20449;-63
2022/09/11 02:27:00;;;;;;;2.40;1.20;;;15.70;87.70;;;;;;5073524;28;20447;-63
2022/09/11 02:29:29;;;;;;;4.17;1.00;;;15.70;87.00;;;;;;5072972;28;20960;-63
2022/09/11 02:31:58;;;;;;;2.40;0.80;;;15.70;87.30;;;;;;5071215;28;20439;-65
2022/09/11 02:34:28;;;;;;;4.73;1.43;;;15.70;87.90;;;;;;5073102;28;20782;-63
2022/09/11 02:37:16;;;;;;;4.77;1.10;;;15.70;88.50;;;;;;5073077;28;20547;-63
2022/09/11 02:40:12;;;;;;;1.83;1.03;;;15.70;88.80;;;;;;5073057;28;20842;-64
2022/09/11 02:43:00;;;;;;;2.47;1.10;;;15.80;89.80;;;;;;5059861;28;20883;-63
2022/09/11 02:45:40;;;;;;;3.57;1.50;;;15.80;90.20;;;;;;5072738;28;20463;-63
2022/09/11 02:48:20;;;;;;;2.20;1.00;;;15.80;90.50;;;;;;5073286;28;20528;-63
2022/09/11 02:50:55;;;;;;;2.83;1.33;;;15.80;90.80;;;;;;5072218;28;20444;-63
2022/09/11 02:53:31;;;;;;;4.23;1.33;;;15.70;91.10;;;;;;5072935;28;20527;-64
2022/09/11 02:56:04;;;;;;;4.43;1.17;;;15.80;91.30;;;;;;5072437;28;20475;-63
2022/09/11 02:58:36;;;;;;;3.80;1.20;;;15.70;91.50;;;;;;5073173;28;20851;-63
2022/09/11 03:01:07;;;;;;;4.57;1.17;;;15.70;91.50;;;;;;5072528;28;20444;-63
2022/09/11 03:03:38;;;;;;;2.70;0.97;;;15.70;91.70;;;;;;5072780;28;20447;-63
2022/09/11 03:06:08;;;;;;;2.17;1.00;;;15.60;91.80;;;;;;5072392;28;20471;-64
2022/09/11 03:08:35;;;;;;;2.17;0.90;;;15.50;91.90;;;;;;5072848;28;20454;-64
2022/09/11 03:11:03;;;;;;;1.90;1.13;;;15.50;92.00;;;;;;5072484;28;20436;-63
2022/09/11 03:13:30;;;;;;;2.47;1.10;;;15.50;92.50;;;;;;5072547;28;20494;-63
2022/09/11 03:15:57;;;;;;;4.83;1.60;;;15.50;92.40;;;;;;5071743;28;20476;-64
2022/09/11 03:18:26;;;;;;;2.37;1.30;;;15.40;92.50;;;;;;5072600;28;20436;-63
2022/09/11 03:20:53;;;;;;;2.10;1.00;;;15.40;92.70;;;;;;5071569;28;20481;-63
2022/09/11 03:23:21;;;;;;;4.00;1.70;;;15.40;92.80;;;;;;5072276;28;20501;-64
2022/09/11 03:25:49;;;;;;;3.00;1.57;;;15.40;93.00;;;;;;5072094;28;20444;-63
2022/09/11 03:28:17;;;;;;;2.83;1.50;;;15.30;93.10;;;;;;5072459;28;20458;-63
2022/09/11 03:30:44;;;;;;;2.37;1.10;;;15.30;93.70;;;;;;5071765;28;20436;-63
2022/09/11 03:33:12;;;;;;;3.93;1.23;;;15.30;93.70;;;;;;5072406;28;20471;-63
2022/09/11 03:35:40;;;;;;;3.40;1.20;;;15.30;93.30;;;;;;5071644;28;20826;-64
2022/09/11 03:38:07;;;;;;;2.67;1.13;;;15.30;93.70;;;;;;5072232;28;20436;-64
2022/09/11 03:40:35;;;;;;;2.30;1.10;;;15.20;93.60;;;;;;5071996;28;20424;-64
2022/09/11 03:43:02;;;;;;;3.27;1.57;;;15.20;94.00;;;;;;5072445;28;20440;-63
2022/09/11 03:45:33;;;;;;;2.27;1.10;;;15.20;93.90;;;;;;5071687;28;20846;-63
2022/09/11 03:48:01;;;;;;;2.50;1.23;;;15.20;94.10;;;;;;5072454;28;20509;-63
2022/09/11 03:50:33;;;;;;;4.73;1.20;;;15.20;94.30;;;;;;5071264;28;20530;-63
2022/09/11 03:53:02;;;;;;;6.23;1.37;;;15.20;94.40;;;;;;5072339;28;20436;-63
2022/09/11 03:55:30;;;;;;;2.73;1.17;;;15.10;94.20;;;;;;5070073;28;20475;-64
2022/09/11 03:58:03;;;;;;;2.73;1.37;;;15.10;94.40;;;;;;5072111;28;20481;-63
2022/09/11 04:00:30;;;;;;;3.83;1.47;;;15.20;94.40;;;;;;5070659;28;20451;-64
2022/09/11 04:02:58;;;;;;;2.20;1.20;;;15.10;94.40;;;;;;5072430;28;20446;-63
2022/09/11 04:05:27;;;;;;;3.20;1.60;;;15.10;94.40;;;;;;5071977;28;20436;-63
2022/09/11 04:07:55;;;;;;;3.20;1.00;;;15.10;94.60;;;;;;5072384;28;20927;-63
2022/09/11 04:10:23;;;;;;;3.20;1.10;;;15.10;94.70;;;;;;5071832;28;20806;-63
2022/09/11 04:12:51;;;;;;;4.17;1.50;;;15.10;94.60;;;;;;5072574;28;20436;-63
2022/09/11 04:15:18;;;;;;;3.13;1.23;;;15.10;94.80;;;;;;5071561;28;20541;-63
2022/09/11 04:17:45;;;;;;;2.33;1.00;;;15.00;94.60;;;;;;5072404;28;20541;-63
2022/09/11 04:20:12;;;;;;;3.53;1.57;;;15.10;94.70;;;;;;5071966;28;20436;-64
2022/09/11 04:22:40;;;;;;;4.37;1.73;;;15.10;94.90;;;;;;5072184;28;20436;-63
2022/09/11 04:25:09;;;;;;;2.27;1.00;;;15.00;94.90;;;;;;5072334;28;20462;-63
2022/09/11 04:27:38;;;;;;;4.40;1.20;;;15.00;94.80;;;;;;5071728;28;20440;-63
2022/09/11 04:30:07;;;;;;;4.03;1.30;;;15.00;94.90;;;;;;5072062;28;20444;-65
2022/09/11 04:32:34;;;;;;;5.50;1.33;;;15.00;95.00;;;;;;5071563;28;20439;-64
2022/09/11 04:35:04;;;;;;;2.20;1.00;;;15.00;95.30;;;;;;5069512;28;20439;-63
2022/09/11 04:37:34;;;;;;;2.77;1.07;;;15.00;95.40;;;;;;5069820;28;20474;-63
2022/09/11 04:40:01;;;;;;;2.70;1.00;;;15.00;95.40;;;;;;5070478;28;20435;-64
2022/09/11 04:42:29;;;;;;;2.00;1.10;;;15.00;95.30;;;;;;5069740;28;20501;-63
2022/09/11 04:44:58;;;;;;;4.37;1.60;;;15.10;95.10;;;;;;5070199;28;20440;-63
2022/09/11 04:47:25;;;;;;;2.87;1.40;;;15.00;95.20;;;;;;5069387;28;20448;-63
2022/09/11 04:49:56;;;;;;;2.60;1.43;;;15.10;95.30;;;;;;5070315;28;20438;-63
2022/09/11 04:52:24;;;;;;;3.07;1.20;;;15.10;95.30;;;;;;5069489;28;20432;-63
2022/09/11 04:54:51;;;;;;;1.97;1.03;;;15.10;95.20;;;;;;5069823;28;20511;-65
2022/09/11 04:57:18;;;;;;;4.40;1.30;;;15.00;94.90;;;;;;5065645;28;20479;-63
2022/09/11 04:59:46;;;;;;;1.70;0.90;;;15.00;95.10;;;;;;5070237;28;20447;-63
2022/09/11 05:02:15;;;;;;;2.50;1.20;;;15.00;95.30;;;;;;5069956;28;20440;-65
2022/09/11 05:04:42;;;;;;;7.97;1.70;;;15.00;95.30;;;;;;5069677;28;20918;-63
2022/09/11 05:07:12;;;;;;;3.10;1.50;;;15.00;95.50;;;;;;5069615;28;20485;-63
2022/09/11 05:09:39;;;;;;;3.57;1.37;;;15.10;95.80;;;;;;5070165;28;20960;-64
2022/09/11 05:12:06;;;;;;;4.67;1.50;;;15.10;95.90;;;;;;5070038;28;20783;-64
2022/09/11 05:14:34;;;;;;;3.20;1.30;;;15.10;95.80;;;;;;5073082;28;20432;-63
2022/09/11 05:17:02;;;;;;;2.00;1.00;;;15.10;95.80;;;;;;5073524;28;20834;-63
2022/09/11 05:19:30;;;;;;;2.30;0.97;;;15.10;96.00;;;;;;5073628;28;20443;-63
2022/09/11 05:21:58;;;;;;;2.40;1.17;;;15.20;95.70;;;;;;5072215;28;20428;-64
2022/09/11 05:24:25;;;;;;;5.50;1.20;;;15.20;95.70;;;;;;5073579;28;20494;-63
2022/09/11 05:26:52;;;;;;;1.80;0.90;;;15.20;95.50;;;;;;5073062;28;20471;-63
2022/09/11 05:29:20;;;;;;;3.20;1.40;;;15.20;95.50;;;;;;5073596;28;20443;-63
2022/09/11 05:31:48;;;;;;;2.57;1.00;;;15.20;95.50;;;;;;5072567;28;20446;-63
2022/09/11 05:34:15;;;;;;;3.20;1.10;;;15.20;95.70;;;;;;5073097;28;20447;-64
2022/09/11 05:36:44;;;;;;;4.33;1.20;;;15.20;96.00;;;;;;5072749;28;20884;-63
2022/09/11 05:39:12;;;;;;;4.77;1.63;;;15.30;96.10;;;;;;5072962;28;20440;-64
2022/09/11 05:41:39;;;;;;;3.97;1.47;;;15.30;96.20;;;;;;5068408;28;20494;-63
2022/09/11 05:44:08;;;;;;;2.20;1.50;;;15.40;96.20;;;;;;5073338;28;20796;-64
2022/09/11 05:46:35;;;;;;;3.37;1.97;;;15.40;96.20;;;;;;5072490;28;20435;-63
2022/09/11 05:49:03;;;;;;;4.13;1.30;;;15.50;96.40;;;;;;5072927;28;20502;-65
2022/09/11 05:51:34;;;;;;;2.70;1.30;;;15.50;96.10;;;;;;5072677;28;20471;-63
2022/09/11 05:54:03;;;;;;;2.20;1.20;;;15.50;96.00;;;;;;5073132;28;20596;-63
2022/09/11 05:56:30;;;;;;;3.40;1.00;;;15.50;96.20;;;;;;5070536;28;20495;-64
2022/09/11 05:58:57;;;;;;;5.13;1.70;;;15.50;96.30;;;;;;5072907;28;20489;-63
2022/09/11 06:01:26;;;;;;;3.70;1.60;;;15.50;96.30;;;;;;5071184;28;20432;-63
2022/09/11 06:03:54;;;;;;;1.73;1.00;;;15.50;96.50;;;;;;5072722;28;20425;-65
2022/09/11 06:06:23;;;;;;;6.40;1.13;;;15.50;96.50;;;;;;5072511;28;20485;-64
2022/09/11 06:08:51;;;;;;;3.37;1.40;;;15.50;96.60;;;;;;5072408;28;20442;-63
2022/09/11 06:11:21;;;;;;;4.33;1.37;;;15.60;97.10;;;;;;5072566;28;20444;-63
2022/09/11 06:13:49;;;;;;;3.83;1.57;;;15.60;96.70;;;;;;5070858;28;20488;-67
2022/09/11 06:16:19;;;;;;;2.30;1.30;;;15.60;96.60;;;;;;5072199;28;20541;-63
2022/09/11 06:18:48;;;;;;;2.43;1.33;;;15.60;96.80;;;;;;5071490;28;20452;-64
2022/09/11 06:21:18;;;;;;;3.00;1.20;;;15.60;97.10;;;;;;5070916;28;20472;-63
2022/09/11 06:23:46;;;;;;;3.00;1.50;;;15.60;97.40;;;;;;5072014;28;20502;-63
2022/09/11 06:26:15;;;;;;;3.50;1.47;;;15.60;97.30;;;;;;5070436;28;20432;-64
2022/09/11 06:28:43;;;;;;;4.63;1.20;;;15.60;97.30;;;;;;5071903;28;20436;-64
2022/09/11 06:31:15;;;;;;;2.67;1.33;;;15.70;97.30;;;;;;5071519;28;20493;-65
2022/09/11 06:33:50;;;;;;;2.93;1.30;;;15.70;97.30;;;;;;5070578;28;20440;-63
2022/09/11 06:36:19;;;;;;;2.93;1.30;;;15.70;97.30;;;;;;5067270;28;20479;-64
2022/09/11 06:38:52;;;;;;;3.10;1.20;;;15.70;97.30;;;;;;5069427;28;20440;-63
2022/09/11 06:41:19;;;;;;;1.83;0.93;;;15.80;97.30;;;;;;5071687;28;20460;-65
2022/09/11 06:43:49;;;;;;;3.27;1.20;;;15.80;97.30;;;;;;5071235;28;20496;-63
2022/09/11 06:46:20;;;;;;;4.33;1.00;;;15.80;97.40;;;;;;5072082;28;20471;-63
2022/09/11 06:48:49;;;;;;;3.73;1.10;;;15.90;97.50;;;;;;5071240;28;20489;-65
2022/09/11 06:51:18;;;;;;;2.83;1.37;;;16.00;97.60;;;;;;5067891;28;20440;-63
2022/09/11 06:53:47;;;;;;;3.70;1.80;;;16.10;97.50;;;;;;5071345;28;21851;-63
2022/09/11 06:56:16;;;;;;;3.70;1.40;;;16.20;97.50;;;;;;5071688;28;20502;-64
2022/09/11 06:58:44;;;;;;;7.53;3.70;;;16.30;97.10;;;;;;5068503;28;20460;-64
2022/09/11 07:01:14;;;;;;;3.60;2.70;;;16.40;96.90;;;;;;5071390;28;20526;-64
2022/09/11 07:03:46;;;;;;;4.93;1.97;;;16.40;96.70;;;;;;5071364;28;20432;-64
2022/09/11 07:06:14;;;;;;;2.97;1.30;;;16.40;96.50;;;;;;5067358;28;20458;-64
2022/09/11 07:08:42;;;;;;;4.90;1.30;;;16.40;96.30;;;;;;5071025;28;20786;-63
2022/09/11 07:11:11;;;;;;;1.83;0.97;;;16.30;96.30;;;;;;5071156;28;20927;-64
2022/09/11 07:13:39;;;;;;;2.83;1.53;;;16.40;96.20;;;;;;5070940;28;20527;-63
2022/09/11 07:16:08;;;;;;;5.20;1.60;;;16.50;96.20;;;;;;5071543;28;20436;-63
2022/09/11 07:18:38;;;;;;;3.17;1.83;;;16.60;96.40;;;;;;5070998;28;20787;-64
2022/09/11 07:21:07;;;;;;;3.00;1.43;;;16.60;96.30;;;;;;5070625;28;20432;-65
2022/09/11 07:23:34;;;;;;;9.77;4.40;;;16.70;95.90;;;;;;5071499;28;20510;-63
2022/09/11 07:26:03;;;;;;;2.20;1.30;;;16.80;96.10;;;;;;5070776;28;20455;-63
2022/09/11 07:28:31;;;;;;;3.60;1.57;;;16.90;96.10;;;;;;5071445;28;20512;-65
2022/09/11 07:31:09;;;;;;;3.07;1.20;;;17.00;95.50;;;;;;5070712;28;20434;-64
2022/09/11 07:33:38;;;;;;;2.70;1.20;;;17.00;95.30;;;;;;5070751;28;20429;-64
2022/09/11 07:36:10;;;;;;;2.97;1.17;;;17.10;95.30;;;;;;5069743;28;20886;-64
2022/09/11 07:38:39;;;;;;;2.87;1.17;;;17.20;95.00;;;;;;5070824;28;20447;-65
2022/09/11 07:41:07;;;;;;;2.93;1.07;;;17.30;94.70;;;;;;5071165;28;20442;-63
2022/09/11 07:43:36;;;;;;;1.83;0.83;;;17.40;94.20;;;;;;5070235;28;20435;-64
2022/09/11 07:46:03;;;;;;;2.03;0.80;;;17.50;93.70;;;;;;5071080;28;20438;-63
2022/09/11 07:48:31;;;;;;;2.80;0.80;;;17.50;93.40;;;;;;5070705;28;20527;-64
2022/09/11 07:51:03;;;;;;;2.70;0.80;;;17.50;93.10;;;;;;5070878;28;20448;-64
2022/09/11 07:53:33;;;;;;;2.20;1.17;;;17.60;93.00;;;;;;5066119;28;20433;-64
2022/09/11 07:56:03;;;;;;;4.43;1.40;;;17.70;92.10;;;;;;5070613;28;20997;-63
2022/09/11 07:58:34;;;;;;;2.90;1.10;;;17.70;91.90;;;;;;5069503;28;20485;-65
2022/09/11 08:01:02;;;;;;;2.20;1.00;;;17.90;93.00;;;;;;5069944;28;20430;-63
2022/09/11 08:03:29;;;;;;;3.30;1.00;;;18.20;92.90;;;;;;5071516;28;21146;-63
2022/09/11 08:06:03;;;;;;;1.93;0.83;;;18.50;92.90;;;;;;5070595;28;20948;-63
2022/09/11 08:08:30;;;;;;;2.00;0.80;;;18.70;91.60;;;;;;5068998;28;20989;-64
2022/09/11 08:11:01;;;;;;;2.13;1.10;;;18.90;91.10;;;;;;5069532;28;20479;-64
2022/09/11 08:13:29;;;;;;;3.73;1.00;;;19.30;90.70;;;;;;5069036;28;21943;-64
2022/09/11 08:15:56;;;;;;;3.47;1.00;;;19.60;90.10;;;;;;5070626;28;20443;-63
2022/09/11 08:18:23;;;;;;;3.33;1.13;;;19.50;86.60;;;;;;5070716;28;20488;-63
2022/09/11 08:20:50;;;;;;;3.50;1.00;;;19.50;87.00;;;;;;5071158;28;20440;-64
2022/09/11 08:23:24;;;;;;;2.20;1.07;;;19.50;87.90;;;;;;5070027;28;20501;-64
2022/09/11 08:25:52;;;;;;;3.50;1.00;;;19.40;85.10;;;;;;5071095;28;20509;-63
2022/09/11 08:28:21;;;;;;;3.40;1.10;;;19.40;86.10;;;;;;5071185;28;20424;-64
2022/09/11 08:30:48;;;;;;;1.93;0.80;;;19.60;85.50;;;;;;5070056;28;20463;-65
2022/09/11 08:33:37;;;;;;;5.10;1.37;;;19.60;85.70;;;;;;5070670;28;20512;-66
2022/09/11 08:36:07;;;;;;;2.17;1.00;;;19.70;88.00;;;;;;5068392;28;20459;-64
2022/09/11 08:38:36;;;;;;;7.57;5.23;;;19.80;85.40;;;;;;5070588;28;21002;-64
2022/09/11 08:41:11;;;;;;;4.93;1.20;;;19.90;86.20;;;;;;5070165;28;20527;-64
2022/09/11 08:43:51;;;;;;;3.27;1.37;;;19.90;83.30;;;;;;5067144;28;20455;-64
2022/09/11 08:46:20;;;;;;;3.83;1.07;;;19.90;83.50;;;;;;5069094;28;20456;-65
2022/09/11 08:48:56;;;;;;;4.23;1.10;;;19.90;83.00;;;;;;5073382;28;20517;-64
2022/09/11 08:51:25;;;;;;;2.90;0.93;;;19.80;83.20;;;;;;5073242;28;20454;-64
2022/09/11 08:53:55;;;;;;;2.77;0.90;;;19.60;82.80;;;;;;5073569;28;20432;-64
2022/09/11 08:56:25;;;;;;;3.97;2.00;;;19.50;83.80;;;;;;5073876;28;20447;-64
2022/09/11 08:59:10;;;;;;;3.23;1.30;;;19.50;83.90;;;;;;5073026;28;20431;-63
2022/09/11 09:01:49;;;;;;;3.47;1.30;;;19.40;84.80;;;;;;5069759;28;20860;-66
2022/09/11 09:04:31;;;;;;;3.90;1.20;;;19.50;85.40;;;;;;5069702;28;20531;-64
2022/09/11 09:07:05;;;;;;;3.57;0.97;;;19.50;85.30;;;;;;5072717;28;20510;-63
2022/09/11 09:09:42;;;;;;;2.37;1.20;;;19.50;84.90;;;;;;5069884;28;20507;-64
2022/09/11 09:12:20;;;;;;;3.50;2.70;;;19.50;84.30;;;;;;5073399;28;20443;-65
2022/09/11 09:15:15;;;;;;;2.90;1.40;;;19.50;84.30;;;;;;5069298;28;20443;-64
2022/09/11 09:17:49;;;;;;;4.13;1.23;;;19.50;83.60;;;;;;5069216;28;20483;-64
2022/09/11 09:20:21;;;;;;;13.00;11.17;;;19.50;84.20;;;;;;5072405;28;20501;-66
2022/09/11 09:22:53;;;;;;;5.33;4.60;;;19.40;84.30;;;;;;5068706;28;20537;-63
2022/09/11 09:25:25;;;;;;;5.10;2.83;;;19.40;84.90;;;;;;5072505;28;20450;-63
2022/09/11 09:27:59;;;;;;;4.67;2.53;;;19.40;85.20;;;;;;5071033;28;20440;-64
2022/09/11 09:30:31;;;;;;;5.53;2.47;;;19.30;85.00;;;;;;5071120;28;20493;-64
2022/09/11 09:33:03;;;;;;;3.23;2.10;;;19.30;84.40;;;;;;5071301;28;20477;-64
2022/09/11 09:35:39;;;;;;;2.93;1.30;;;19.30;83.70;;;;;;5071707;28;20476;-64
2022/09/11 09:38:12;;;;;;;1.83;0.83;;;19.20;83.50;;;;;;5071277;28;20487;-64
2022/09/11 09:40:54;;;;;;;2.20;1.30;;;19.20;83.20;;;;;;5072312;28;20443;-64
2022/09/11 09:43:37;;;;;;;2.80;1.10;;;19.20;84.00;;;;;;5071185;28;20803;-63
2022/09/11 09:46:15;;;;;;;3.00;1.73;;;19.10;84.50;;;;;;5072358;28;20497;-64
2022/09/11 09:48:42;;;;;;;3.43;1.67;;;19.10;84.60;;;;;;5068267;28;20436;-63
2022/09/11 09:51:13;;;;;;;2.10;1.17;;;19.00;84.60;;;;;;5071850;28;20451;-64
2022/09/11 09:53:44;;;;;;;4.00;1.80;;;19.00;84.90;;;;;;5071431;28;20957;-65
2022/09/11 09:56:16;;;;;;;5.27;1.50;;;19.10;84.10;;;;;;5071730;28;20448;-64
2022/09/11 09:58:53;;;;;;;2.03;1.40;;;19.10;85.00;;;;;;5069069;28;20482;-64
2022/09/11 10:01:43;;;;;;;4.27;1.57;;;19.10;86.40;;;;;;5069146;28;20933;-64
2022/09/11 10:04:14;;;;;;;3.03;2.40;;;19.10;87.10;;;;;;5071157;28;21028;-64
2022/09/11 10:06:42;;;;;;;3.73;1.70;;;19.20;86.70;;;;;;5071043;28;20448;-64
2022/09/11 10:09:25;;;;;;;5.33;4.33;;;19.10;86.20;;;;;;5071520;28;20451;-64
2022/09/11 10:12:02;;;;;;;4.07;3.20;;;19.10;86.00;;;;;;5068838;28;20490;-64
2022/09/11 10:14:32;;;;;;;2.93;1.73;;;19.20;86.10;;;;;;5070849;28;20448;-65
2022/09/11 10:17:01;;;;;;;3.30;1.50;;;19.30;85.80;;;;;;5070980;28;20851;-64
2022/09/11 10:19:38;;;;;;;2.90;1.20;;;19.30;84.90;;;;;;5071287;28;20930;-64
2022/09/11 10:22:26;;;;;;;3.80;1.77;;;19.30;83.80;;;;;;5070350;28;20452;-64
2022/09/11 10:25:04;;;;;;;2.30;1.10;;;19.40;84.70;;;;;;5068805;28;20436;-65
2022/09/11 10:27:44;;;;;;;5.37;1.80;;;19.40;84.30;;;;;;5069970;28;20485;-63
2022/09/11 10:30:28;;;;;;;3.43;0.83;;;19.50;85.10;;;;;;5068887;28;21303;-64
2022/09/11 10:32:56;;;;;;;2.10;0.90;;;19.60;85.30;;;;;;5069839;28;21090;-65
2022/09/11 10:35:26;;;;;;;2.53;0.90;;;19.90;85.30;;;;;;5070359;28;20440;-64
2022/09/11 10:38:16;;;;;;;2.70;1.60;;;20.50;86.50;;;;;;5070355;28;20490;-64
2022/09/11 10:40:57;;;;;;;2.40;1.40;;;21.20;83.00;;;;;;5070863;28;20471;-64
2022/09/11 10:43:33;;;;;;;2.20;1.20;;;21.80;80.90;;;;;;5067847;28;20440;-64
2022/09/11 10:46:05;;;;;;;3.23;1.47;;;22.10;78.50;;;;;;5070586;28;20522;-66
2022/09/11 10:48:41;;;;;;;3.20;1.23;;;22.30;77.10;;;;;;5070260;28;20935;-64
2022/09/11 10:51:12;;;;;;;2.20;0.90;;;22.40;75.90;;;;;;5070638;28;20443;-64
2022/09/11 10:53:50;;;;;;;2.90;1.80;;;22.70;76.20;;;;;;5070422;28;20444;-65
2022/09/11 10:56:18;;;;;;;3.40;1.40;;;22.90;72.60;;;;;;5068770;28;21056;-63
2022/09/11 10:58:49;;;;;;;3.67;1.37;;;22.90;71.30;;;;;;5070927;28;20902;-64
2022/09/11 11:01:16;;;;;;;2.40;1.30;;;22.80;69.90;;;;;;5073386;28;20438;-64
2022/09/11 11:03:44;;;;;;;4.70;2.00;;;22.80;69.00;;;;;;5074080;28;20851;-64
2022/09/11 11:06:24;;;;;;;3.50;1.87;;;22.70;69.20;;;;;;5073511;28;20787;-64
2022/09/11 11:09:27;;;;;;;4.80;1.30;;;22.60;70.80;;;;;;5073956;28;20971;-65
2022/09/11 11:12:08;;;;;;;3.57;1.90;;;22.80;72.20;;;;;;5073264;28;20922;-64
2022/09/11 11:14:55;;;;;;;3.20;1.40;;;23.00;73.00;;;;;;5073117;28;20435;-64
2022/09/11 11:17:32;;;;;;;2.87;1.50;;;23.80;72.80;;;;;;5073310;28;20458;-64
2022/09/11 11:20:15;;;;;;;3.83;1.60;;;26.30;74.00;;;;;;5073695;28;20471;-65
2022/09/11 11:23:06;;;;;;;4.90;1.30;;;29.10;60.60;;;;;;5073575;28;20856;-65
2022/09/11 11:25:40;;;;;;;2.70;1.30;;;29.50;51.90;;;;;;5064750;28;20531;-65
2022/09/11 11:28:28;;;;;;;3.37;1.20;;;28.70;50.40;;;;;;5073173;28;20480;-65
2022/09/11 11:31:06;;;;;;;2.60;1.23;;;27.80;50.30;;;;;;5073218;28;20475;-65
2022/09/11 11:33:55;;;;;;;4.63;1.60;;;27.10;51.80;;;;;;5073519;28;20523;-64
2022/09/11 11:36:30;;;;;;;3.13;1.90;;;26.50;52.10;;;;;;5072960;28;20463;-65
2022/09/11 11:39:01;;;;;;;2.17;1.20;;;25.90;52.60;;;;;;5073098;28;20514;-64
2022/09/11 11:41:33;;;;;;;2.97;1.40;;;25.50;53.10;;;;;;5073137;28;20841;-65
2022/09/11 11:44:03;;;;;;;3.10;1.73;;;25.20;53.50;;;;;;5073369;28;20446;-64
2022/09/11 11:46:37;;;;;;;3.43;1.50;;;25.00;54.40;;;;;;5073123;28;20982;-64
2022/09/11 11:49:10;;;;;;;2.50;1.40;;;24.60;54.20;;;;;;5073302;28;20525;-65
2022/09/11 11:51:47;;;;;;;3.63;1.23;;;24.20;55.10;;;;;;5073290;28;20440;-65
2022/09/11 11:54:19;;;;;;;6.70;2.13;;;24.20;57.70;;;;;;5073227;28;20518;-64
2022/09/11 11:56:50;;;;;;;3.73;1.77;;;24.60;57.90;;;;;;5073148;28;20786;-65
2022/09/11 11:59:25;;;;;;;5.33;1.20;;;24.80;57.70;;;;;;5073026;28;20480;-65
2022/09/11 12:02:01;;;;;;;2.60;1.40;;;24.90;55.40;;;;;;5072954;28;20439;-64
2022/09/11 12:04:40;;;;;;;4.60;1.47;;;25.30;57.60;;;;;;5073214;28;20544;-64
2022/09/11 12:07:16;;;;;;;4.57;3.20;;;26.40;54.60;;;;;;5072640;28;20440;-66
2022/09/11 12:09:48;;;;;;;4.07;2.10;;;26.30;52.40;;;;;;5073235;28;20747;-65
2022/09/11 12:12:17;;;;;;;4.47;2.23;;;26.10;53.00;;;;;;5073035;28;20490;-64
2022/09/11 12:14:50;;;;;;;3.20;1.70;;;25.80;53.00;;;;;;5072534;28;20479;-65
2022/09/11 12:17:28;;;;;;;5.80;3.03;;;25.70;53.10;;;;;;5072526;28;20440;-65
2022/09/11 12:20:33;;;;;;;5.80;5.20;;;25.50;52.40;;;;;;5072864;28;20949;-64
2022/09/11 12:23:00;;;;;;;3.40;1.37;;;25.20;52.80;;;;;;5053527;28;20505;-64
2022/09/11 12:26:04;;;;;;;3.33;1.30;;;24.80;52.90;;;;;;5076697;28;20439;-64
2022/09/11 12:28:33;;;;;;;2.93;1.30;;;24.40;53.70;;;;;;5076440;28;20440;-64
2022/09/11 12:31:03;;;;;;;2.67;1.10;;;24.00;54.20;;;;;;5076945;28;20440;-64
2022/09/11 12:33:54;;;;;;;2.37;1.40;;;23.70;56.30;;;;;;5076700;28;20539;-64
2022/09/11 12:36:32;;;;;;;6.53;1.57;;;23.30;56.70;;;;;;5076339;28;20559;-64
2022/09/11 12:39:03;;;;;;;6.00;1.80;;;23.00;57.20;;;;;;5076700;28;20479;-64
2022/09/11 12:41:32;;;;;;;4.60;2.00;;;22.70;56.90;;;;;;5076595;28;20476;-64
2022/09/11 12:44:00;;;;;;;3.50;2.00;;;22.50;57.10;;;;;;5076556;28;20447;-65
2022/09/11 12:47:10;;;;;;;2.90;1.17;;;22.30;57.60;;;;;;5076327;28;20523;-64
2022/09/11 12:49:39;;;;;;;4.00;1.20;;;22.10;57.50;;;;;;5076411;28;20439;-64
2022/09/11 12:52:18;;;;;;;3.57;2.30;;;22.00;57.70;;;;;;5076138;28;20440;-64
2022/09/11 12:54:45;;;;;;;4.70;1.73;;;21.80;56.50;;;;;;5076551;28;20514;-64
2022/09/11 12:57:20;;;;;;;2.47;1.07;;;21.70;56.60;;;;;;5076269;28;20543;-64
2022/09/11 12:59:53;;;;;;;3.47;1.37;;;21.60;57.30;;;;;;5076027;28;20567;-65
2022/09/11 13:02:28;;;;;;;2.70;1.20;;;21.40;58.80;;;;;;5075802;28;20522;-64
2022/09/11 13:04:57;;;;;;;5.07;1.10;;;21.30;60.70;;;;;;5076290;28;20834;-64
2022/09/11 13:07:33;;;;;;;5.90;2.20;;;21.20;62.50;;;;;;5075994;28;20855;-64
2022/09/11 13:10:06;;;;;;;6.70;3.17;;;21.00;65.90;;;;;;5076117;28;20439;-64
2022/09/11 13:12:51;;;;;;;3.23;1.30;;;20.80;67.10;;;;;;5075929;28;20436;-64
2022/09/11 13:15:39;;;;;;;4.77;1.57;;;20.50;65.80;;;;;;5075561;28;20930;-64